Time;durP1;ratioP1;P1;durP2;ratioP2;P2;SDS_P1;SDS_P2;PMS_P1;PMS_P2;Temp;Humidity;BMP_temperature;BMP_pressure;BME280_temperature;BME280_humidity;BME280_pressure;Samples;Min_cycle;Max_cycle;Signal;HPM_P1;HPM_P2
2023/01/30 08:56:11;;;;;;;;;;;;;;;2.66;100.00;100194.66;5243688;23;20161;-89
2023/01/30 08:58:36;;;;;;;;;;;;;;;2.68;100.00;100192.91;5017935;28;20008;-87
2023/01/30 09:01:07;;;;;;;;;;;;;;;2.78;100.00;100187.66;5017473;28;20332;-89
2023/01/30 09:03:32;;;;;;;;;;;;;;;3.43;100.00;100191.63;5035185;28;20384;-86
2023/01/30 09:06:00;;;;;;;;;;;;;;;3.90;100.00;100196.50;5035167;28;20002;-89
2023/01/30 09:08:25;;;;;;;;;;;;;;;4.18;100.00;100184.00;5035132;28;20330;-87
2023/01/30 09:11:06;;;;;;;;;;;;;;;4.37;100.00;100171.50;5016256;28;20007;-90
2023/01/30 09:13:33;;;;;;;;;;;;;;;4.53;100.00;100180.97;5015824;28;19921;-86
2023/01/30 09:15:58;;;;;;;;;;;;;;;4.65;100.00;100179.06;5017076;28;19917;-87
2023/01/30 09:18:24;;;;;;;;;;;;;;;4.73;100.00;100180.72;5034951;28;19928;-87
2023/01/30 09:20:49;;;;;;;;;;;;;;;4.83;100.00;100177.97;5034894;28;19924;-88
2023/01/30 09:23:14;;;;;;;;;;;;;;;4.90;100.00;100175.25;5034759;28;19921;-87
2023/01/30 09:25:40;;;;;;;;;;;;;;;4.98;100.00;100176.88;5033517;28;19924;-88
2023/01/30 09:28:13;;;;;;;;;;;;;;;5.05;100.00;100170.66;5016874;28;19921;-87
2023/01/30 09:30:38;;;;;;;;;;;;;;;5.09;100.00;100157.47;5034584;28;20016;-87
2023/01/30 09:33:03;;;;;;;;;;;;;;;5.16;100.00;100150.38;5034539;28;20346;-88
2023/01/30 09:35:29;;;;;;;;;;;;;;;5.22;100.00;100152.06;5017032;28;19921;-89
2023/01/30 09:37:54;;;;;;;;;;;;;;;5.26;100.00;100157.25;5034585;28;19917;-89
2023/01/30 09:40:22;;;;;;;;;;;;;;;5.32;100.00;100158.03;5033158;28;20086;-88
2023/01/30 09:42:59;;;;;;;;;;;;;;;5.35;100.00;100166.72;5017120;28;20382;-88
2023/01/30 09:45:46;;;;;;;;;;;;;;;5.39;100.00;100176.31;5016781;28;19921;-87
2023/01/30 09:48:19;;;;;;;;;;;;;;;5.42;100.00;100162.22;5016390;28;19917;-88
2023/01/30 09:50:56;;;;;;;;;;;;;;;5.47;100.00;100173.53;5016525;28;20387;-86
2023/01/30 09:53:30;;;;;;;;;;;;;;;5.53;100.00;100170.81;5034111;28;20399;-87
2023/01/30 09:56:01;;;;;;;;;;;;;;;5.55;100.00;100163.78;5016358;28;19924;-87
2023/01/30 09:58:37;;;;;;;;;;;;;;;5.60;100.00;100156.69;5054104;28;19923;-87
2023/01/30 10:01:11;;;;;;;;;;;;;;;5.63;100.00;100156.66;5053944;28;19923;-89
2023/01/30 10:03:40;;;;;;;;;;;;;;;5.67;100.00;100146.06;5053926;28;19916;-87
2023/01/30 10:06:09;;;;;;;;;;;;;;;5.70;100.00;100146.03;5053772;28;19924;-87
2023/01/30 10:08:41;;;;;;;;;;;;;;;5.72;100.00;100154.75;5053859;28;20291;-87
2023/01/30 10:11:30;;;;;;;;;;;;;;;5.74;100.00;100152.94;5052535;28;20018;-86
2023/01/30 10:14:06;;;;;;;;;;;;;;;5.75;100.00;100158.19;5040504;28;19920;-88
2023/01/30 10:16:34;;;;;;;;;;;;;;;5.80;100.00;100168.63;5035752;28;19924;-87
2023/01/30 10:19:02;;;;;;;;;;;;;;;5.81;100.00;100167.75;5053756;28;19912;-88
2023/01/30 10:21:30;;;;;;;;;;;;;;;5.83;100.00;100177.31;5053636;28;19917;-86
2023/01/30 10:24:01;;;;;;;;;;;;;;;5.85;100.00;100179.94;5053671;28;19913;-87
2023/01/30 10:26:27;;;;;;;;;;;;;;;5.88;100.00;100181.66;5052280;28;19917;-88
2023/01/30 10:29:04;;;;;;;;;;;;;;;5.90;100.00;100179.84;5053493;28;19917;-87
2023/01/30 10:32:08;;;;;;;;;;;;;;;5.90;100.00;100175.44;5053129;28;20447;-88
2023/01/30 10:34:36;;;;;;;;;;;;;;;5.93;100.00;100158.75;4953409;29;20381;-88
2023/01/30 10:37:20;;;;;;;;;;;;;;;5.95;100.00;100159.59;4953367;29;20392;-88
2023/01/30 10:39:51;;;;;;;;;;;;;;;5.96;100.00;100141.19;4988384;28;19917;-87
2023/01/30 10:42:22;;;;;;;;;;;;;;;5.98;100.00;100134.16;5053295;28;19920;-87
2023/01/30 10:44:48;;;;;;;;;;;;;;;6.02;100.00;100142.84;5053343;28;20011;-87
2023/01/30 10:47:42;;;;;;;;;;;;;;;6.02;100.00;100145.47;5053270;28;20017;-87
2023/01/30 10:50:14;;;;;;;;;;;;;;;6.03;100.00;100141.97;4964692;28;19919;-84
2023/01/30 10:52:45;;;;;;;;;;;;;;;6.03;100.00;100144.59;5053387;28;19916;-86
2023/01/30 10:55:14;;;;;;;;;;;;;;;6.05;100.00;100150.69;5034111;28;19923;-86
2023/01/30 10:57:49;;;;;;;;;;;;;;;6.08;100.00;100147.09;5053037;28;19928;-85
2023/01/30 11:00:23;;;;;;;;;;;;;;;6.10;100.00;100145.34;5035151;28;19917;-86
2023/01/30 11:02:58;;;;;;;;;;;;;;;6.11;100.00;100149.69;5053329;28;19912;-87
2023/01/30 11:05:26;;;;;;;;;;;;;;;6.13;100.00;100140.03;5053399;28;20329;-85
2023/01/30 11:07:51;;;;;;;;;;;;;;;6.15;100.00;100143.47;5053211;28;20286;-86
2023/01/30 11:10:18;;;;;;;;;;;;;;;6.14;100.00;100128.59;5051676;28;20007;-86
2023/01/30 11:12:43;;;;;;;;;;;;;;;6.17;100.00;100136.41;5052901;28;19920;-87
2023/01/30 11:15:10;;;;;;;;;;;;;;;6.18;100.00;100132.91;5035334;28;20008;-87
2023/01/30 11:17:45;;;;;;;;;;;;;;;6.07;100.00;100140.13;5053362;28;19917;-86
2023/01/30 11:20:13;;;;;;;;;;;;;;;4.76;100.00;100134.31;5053151;28;19924;-86
2023/01/30 11:22:44;;;;;;;;;;;;;;;4.28;100.00;100143.63;5053128;28;19971;-86
2023/01/30 11:25:18;;;;;;;;;;;;;;;4.14;100.00;100146.41;5033710;28;20252;-86
2023/01/30 11:27:50;;;;;;;;;;;;;;;3.93;100.00;100141.41;5052943;28;19960;-86
2023/01/30 11:30:16;;;;;;;;;;;;;;;3.82;100.00;100139.75;5052781;28;19939;-85
2023/01/30 11:32:42;;;;;;;;;;;;;;;3.75;100.00;100138.06;5035162;28;19917;-86
2023/01/30 11:35:07;;;;;;;;;;;;;;;3.66;100.00;100135.53;5052799;28;19917;-85
2023/01/30 11:37:34;;;;;;;;;;;;;;;3.62;100.00;100136.44;5052606;28;19916;-86
2023/01/30 11:40:32;;;;;;;;;;;;;;;;;;;;;
2023/01/30 11:43:09;;;;;;;;;;;;;;;3.53;100.00;100128.69;5053088;28;19924;-88
2023/01/30 11:45:37;;;;;;;;;;;;;;;3.38;100.00;100142.75;5056640;28;19927;-87
2023/01/30 11:48:05;;;;;;;;;;;;;;;3.34;100.00;100136.66;5056773;28;19962;-87
2023/01/30 11:50:54;;;;;;;;;;;;;;;3.25;100.00;100132.34;5038401;28;19959;-86
2023/01/30 11:53:40;;;;;;;;;;;;;;;3.25;100.00;100134.13;5056427;28;19917;-87
2023/01/30 11:56:17;;;;;;;;;;;;;;;3.20;100.00;100130.66;5055429;28;20283;-90
2023/01/30 11:58:47;;;;;;;;;;;;;;;3.15;100.00;100125.47;5038397;28;19959;-91
2023/01/30 12:01:15;;;;;;;;;;;;;;;3.12;100.00;100117.63;5038488;28;19916;-90
2023/01/30 12:03:46;;;;;;;;;;;;;;;3.04;100.00;100125.53;5056339;28;19924;-87
2023/01/30 12:06:19;;;;;;;;;;;;;;;3.08;100.00;100126.41;5038328;28;20012;-87
2023/01/30 12:08:44;;;;;;;;;;;;;;;3.07;100.00;100130.75;5056262;28;19975;-86
2023/01/30 12:11:26;;;;;;;;;;;;;;;3.04;100.00;100120.28;5055653;28;19952;-88
2023/01/30 12:13:53;;;;;;;;;;;;;;;3.00;100.00;100118.59;5038686;28;19913;-90
2023/01/30 12:16:21;;;;;;;;;;;;;;;3.06;100.00;100120.28;5056129;28;19939;-86
2023/01/30 12:18:49;;;;;;;;;;;;;;;2.99;100.00;100127.31;5056010;28;19944;-87
2023/01/30 12:21:14;;;;;;;;;;;;;;;2.90;100.00;100124.75;5055952;28;19923;-85
2023/01/30 12:23:46;;;;;;;;;;;;;;;2.88;100.00;100124.75;5037952;28;19991;-88
2023/01/30 12:26:13;;;;;;;;;;;;;;;2.92;100.00;100117.78;5054654;28;19917;-86
2023/01/30 12:28:52;;;;;;;;;;;;;;;2.83;100.00;100109.97;5037901;28;19925;-87
2023/01/30 12:31:21;;;;;;;;;;;;;;;2.89;100.00;100112.56;5038020;28;19916;-87
2023/01/30 12:33:47;;;;;;;;;;;;;;;2.83;100.00;100104.75;5038011;28;19924;-86
2023/01/30 12:36:24;;;;;;;;;;;;;;;2.85;100.00;100102.97;5037728;28;20386;-86
2023/01/30 12:38:53;;;;;;;;;;;;;;;2.82;100.00;100093.38;5037951;28;19917;-87
2023/01/30 12:41:18;;;;;;;;;;;;;;;2.77;100.00;100092.53;5054244;28;19924;-87
2023/01/30 12:43:49;;;;;;;;;;;;;;;2.77;100.00;100097.78;5055596;28;19917;-86
2023/01/30 12:46:33;;;;;;;;;;;;;;;2.73;100.00;100094.31;5055553;28;19917;-86
2023/01/30 12:49:21;;;;;;;;;;;;;;;2.77;100.00;100102.16;5055355;28;19974;-88
2023/01/30 12:51:49;;;;;;;;;;;;;;;2.72;100.00;100115.25;5055403;28;20379;-87
2023/01/30 12:54:37;;;;;;;;;;;;;;;2.68;100.00;100122.28;5053691;28;20279;-86
2023/01/30 12:57:08;;;;;;;;;;;;;;;2.73;100.00;100111.78;5054874;28;19952;-86
2023/01/30 12:59:33;;;;;;;;;;;;;;;2.63;100.00;100108.34;5037352;28;19925;-86
2023/01/30 13:02:19;;;;;;;;;;;;;;;2.65;100.00;100118.78;5037279;28;19982;-87
2023/01/30 13:05:05;;;;;;;;;;;;;;;2.65;100.00;100110.91;5037253;28;20371;-87
2023/01/30 13:07:33;;;;;;;;;;;;;;;3.13;100.00;100106.28;5037078;28;20301;-87
2023/01/30 13:10:05;;;;;;;;;;;;;;;3.70;100.00;100105.81;5053704;28;20083;-85
2023/01/30 13:12:34;;;;;;;;;;;;;;;4.06;100.00;100095.78;5055015;28;19917;-88
2023/01/30 13:15:10;;;;;;;;;;;;;;;4.27;100.00;100099.91;5037035;28;19919;-87
2023/01/30 13:17:56;;;;;;;;;;;;;;;4.43;100.00;100097.13;5054930;28;19916;-89
2023/01/30 13:20:24;;;;;;;;;;;;;;;4.58;100.00;100099.56;5054860;28;19924;-90
2023/01/30 13:22:59;;;;;;;;;;;;;;;4.68;100.00;100095.03;5054694;28;19917;-88
2023/01/30 13:25:35;;;;;;;;;;;;;;;4.78;100.00;100096.63;5053427;28;19924;-87
2023/01/30 13:28:05;;;;;;;;;;;;;;;4.86;100.00;100094.75;5054899;28;19917;-89
2023/01/30 13:30:32;;;;;;;;;;;;;;;4.93;100.00;100090.31;5054389;28;19916;-89
2023/01/30 13:33:00;;;;;;;;;;;;;;;4.99;100.00;100100.69;5054856;28;19917;-90
2023/01/30 13:35:29;;;;;;;;;;;;;;;5.05;100.00;100084.00;5054546;28;19962;-88
2023/01/30 13:37:56;;;;;;;;;;;;;;;5.11;100.00;100090.94;5054576;28;19916;-85
2023/01/30 13:40:23;;;;;;;;;;;;;;;5.16;100.00;100092.56;5053214;28;19916;-87
2023/01/30 13:43:00;;;;;;;;;;;;;;;5.21;100.00;100097.75;5054614;28;19923;-87
2023/01/30 13:45:38;;;;;;;;;;;;;;;;;;;;;
2023/01/30 13:48:42;;;;;;;;;;;;;;;5.31;100.00;100101.09;5054477;28;19920;-87
2023/01/30 13:51:26;;;;;;;;;;;;;;;5.36;100.00;100104.50;4953998;29;20038;-89
2023/01/30 13:54:10;;;;;;;;;;;;;;;5.38;100.00;100092.25;4954095;29;19984;-87
2023/01/30 13:56:40;;;;;;;;;;;;;;;5.41;100.00;100097.44;5005042;28;19920;-89
2023/01/30 13:59:24;;;;;;;;;;;;;;;5.43;100.00;100091.25;5036391;28;20033;-92
2023/01/30 14:01:58;;;;;;;;;;;;;;;5.49;100.00;100103.44;5053864;28;20512;-89
2023/01/30 14:04:39;;;;;;;;;;;;;;;5.53;100.00;100091.97;5036186;28;20341;-88
2023/01/30 14:07:13;;;;;;;;;;;;;;;5.55;100.00;100100.69;5053292;28;19963;-91
2023/01/30 14:09:42;;;;;;;;;;;;;;;5.58;100.00;100107.66;5034885;28;19956;-91
2023/01/30 14:12:16;;;;;;;;;;;;;;;5.62;100.00;100094.44;5053806;28;19917;-87
2023/01/30 14:14:55;;;;;;;;;;;;;;;5.65;100.00;100098.78;5054018;28;20339;-88
2023/01/30 14:17:20;;;;;;;;;;;;;;;5.67;100.00;100099.59;5054126;28;19916;-87
2023/01/30 14:20:08;;;;;;;;;;;;;;;5.69;100.00;100097.81;5053760;28;20363;-87
2023/01/30 14:22:36;;;;;;;;;;;;;;;5.71;100.00;100101.31;5053116;28;20383;-88
2023/01/30 14:25:20;;;;;;;;;;;;;;;5.75;100.00;100115.25;5052420;28;19969;-87
2023/01/30 14:27:45;;;;;;;;;;;;;;;5.78;100.00;100118.69;5053552;28;20004;-87
2023/01/30 14:30:29;;;;;;;;;;;;;;;5.80;100.00;100126.56;5053752;28;20015;-86
2023/01/30 14:32:55;;;;;;;;;;;;;;;5.82;100.00;100124.75;5053571;28;19917;-88
2023/01/30 14:35:23;;;;;;;;;;;;;;;5.83;100.00;100129.97;5035626;28;19966;-87
2023/01/30 14:37:49;;;;;;;;;;;;;;;5.86;100.00;100122.97;5053515;28;19923;-89
2023/01/30 14:40:21;;;;;;;;;;;;;;;5.89;100.00;100130.75;5034192;28;19919;-88
2023/01/30 14:43:05;;;;;;;;;;;;;;;5.91;100.00;100140.38;5053732;28;20330;-88
2023/01/30 14:45:43;;;;;;;;;;;;;;;5.94;100.00;100140.31;5053185;28;19912;-87
2023/01/30 14:48:28;;;;;;;;;;;;;;;5.96;100.00;100137.66;5035396;28;20290;-89
2023/01/30 14:51:12;;;;;;;;;;;;;;;5.98;100.00;100143.78;5053170;28;20267;-87
2023/01/30 14:54:00;;;;;;;;;;;;;;;6.00;100.00;100150.75;5053241;28;20387;-88
2023/01/30 14:56:45;;;;;;;;;;;;;;;6.01;100.00;100151.63;5020965;28;19928;-89
2023/01/30 14:59:16;;;;;;;;;;;;;;;6.05;100.00;100152.44;5053273;28;20014;-88
2023/01/30 15:02:00;;;;;;;;;;;;;;;6.06;100.00;100154.19;5035243;28;19923;-88
2023/01/30 15:04:31;;;;;;;;;;;;;;;6.06;100.00;100165.56;5053116;28;20355;-87
2023/01/30 15:06:59;;;;;;;;;;;;;;;6.08;100.00;100166.41;5053569;28;19927;-90
2023/01/30 15:09:26;;;;;;;;;;;;;;;6.09;100.00;100176.03;5051825;28;20007;-89
2023/01/30 15:12:02;;;;;;;;;;;;;;;6.11;100.00;100184.78;5039005;28;19927;-95
2023/01/30 15:14:31;;;;;;;;;;;;;;;6.13;100.00;100195.28;5043852;28;19924;-94
2023/01/30 15:17:04;;;;;;;;;;;;;;;6.14;100.00;100200.50;5044395;28;20401;-95
2023/01/30 15:19:29;;;;;;;;;;;;;;;6.16;100.00;100203.13;5062977;28;19917;-93
2023/01/30 15:22:02;;;;;;;;;;;;;;;6.16;100.00;100208.38;5043720;28;19962;-95
2023/01/30 15:24:41;;;;;;;;;;;;;;;6.20;100.00;100209.19;5061780;28;19921;-94
2023/01/30 15:27:21;;;;;;;;;;;;;;;5.13;100.00;100207.34;5057864;28;19970;-91
2023/01/30 15:29:49;;;;;;;;;;;;;;;4.47;100.00;100217.78;5057201;28;19917;-91
2023/01/30 15:32:16;;;;;;;;;;;;;;;4.17;100.00;100230.31;5061200;28;19917;-93
2023/01/30 15:34:52;;;;;;;;;;;;;;;4.08;100.00;100235.63;5041664;28;20291;-93
2023/01/30 15:37:32;;;;;;;;;;;;;;;3.94;100.00;100240.13;5058653;28;20021;-94
2023/01/30 15:40:13;;;;;;;;;;;;;;;3.82;100.00;100255.09;5056571;28;20386;-95
2023/01/30 15:42:42;;;;;;;;;;;;;;;3.74;100.00;100256.91;5039288;28;19982;-86
2023/01/30 15:45:22;;;;;;;;;;;;;;;3.67;100.00;100260.47;5057345;28;19916;-85
2023/01/30 15:47:57;;;;;;;;;;;;;;;3.66;100.00;100274.44;5057715;28;19966;-91
2023/01/30 15:50:22;;;;;;;;;;;;;;;3.52;100.00;100271.03;5056799;28;19924;-91
2023/01/30 15:52:49;;;;;;;;;;;;;;;3.50;100.00;100272.81;5056530;28;19917;-88
2023/01/30 15:55:32;;;;;;;;;;;;;;;3.43;100.00;100270.22;5055297;28;20619;-86
2023/01/30 15:58:02;;;;;;;;;;;;;;;3.45;100.00;100263.22;5056231;28;20043;-86
2023/01/30 16:00:30;;;;;;;;;;;;;;;3.35;100.00;100276.38;5038555;28;19971;-86
2023/01/30 16:02:56;;;;;;;;;;;;;;;3.30;100.00;100281.63;5038207;28;19924;-89
2023/01/30 16:05:23;;;;;;;;;;;;;;;3.25;100.00;100284.25;5038946;28;19917;-86
2023/01/30 16:07:50;;;;;;;;;;;;;;;3.47;100.00;100272.81;5038718;28;19913;-88
2023/01/30 16:10:17;;;;;;;;;;;;;;;3.25;100.00;100293.88;5054756;28;19982;-87
2023/01/30 16:12:42;;;;;;;;;;;;;;;3.18;100.00;100294.81;5038130;28;19924;-88
2023/01/30 16:15:15;;;;;;;;;;;;;;;3.13;100.00;100302.69;5056107;28;20329;-86
2023/01/30 16:17:42;;;;;;;;;;;;;;;3.09;100.00;100307.06;5055953;28;20442;-90
2023/01/30 16:20:11;;;;;;;;;;;;;;;3.08;100.00;100312.31;5056064;28;19989;-86
2023/01/30 16:22:36;;;;;;;;;;;;;;;3.03;100.00;100314.03;5055942;28;19917;-86
2023/01/30 16:25:14;;;;;;;;;;;;;;;3.02;100.00;100322.78;5054654;28;19974;-88
2023/01/30 16:27:39;;;;;;;;;;;;;;;3.01;100.00;100332.38;5055820;28;19917;-89
2023/01/30 16:30:08;;;;;;;;;;;;;;;2.96;100.00;100328.06;5037239;28;19924;-87
2023/01/30 16:32:35;;;;;;;;;;;;;;;2.94;100.00;100338.53;5055854;28;19917;-87
2023/01/30 16:35:19;;;;;;;;;;;;;;;2.93;100.00;100334.16;5037820;28;20011;-90
2023/01/30 16:37:44;;;;;;;;;;;;;;;2.90;100.00;100344.63;5055707;28;19956;-86
2023/01/30 16:40:09;;;;;;;;;;;;;;;2.88;100.00;100346.38;5054379;28;19963;-85
2023/01/30 16:42:35;;;;;;;;;;;;;;;2.87;100.00;100345.53;5037753;28;19972;-87
2023/01/30 16:45:32;;;;;;;;;;;;;;;2.84;100.00;100345.53;5055754;28;19963;-86
2023/01/30 16:48:18;;;;;;;;;;;;;;;2.82;100.00;100331.56;5055231;28;19921;-88
2023/01/30 16:50:45;;;;;;;;;;;;;;;2.79;100.00;100341.16;5037551;28;19990;-87
2023/01/30 16:53:15;;;;;;;;;;;;;;;2.78;100.00;100345.53;5033327;28;19925;-86
2023/01/30 16:55:53;;;;;;;;;;;;;;;2.78;100.00;100349.91;5017195;28;19928;-86
2023/01/30 16:58:18;;;;;;;;;;;;;;;2.73;100.00;100353.41;5046259;28;19921;-86
2023/01/30 17:00:49;;;;;;;;;;;;;;;2.76;100.00;100359.50;5031473;28;19924;-86
2023/01/30 17:03:24;;;;;;;;;;;;;;;2.76;100.00;100367.34;5042551;28;20339;-86
2023/01/30 17:05:50;;;;;;;;;;;;;;;2.73;100.00;100358.63;5043842;28;19917;-86
2023/01/30 17:08:43;;;;;;;;;;;;;;;2.70;100.00;100369.09;5035979;28;19917;-88
2023/01/30 17:11:09;;;;;;;;;;;;;;;2.70;100.00;100358.63;5045642;28;19924;-86
2023/01/30 17:13:40;;;;;;;;;;;;;;;2.69;100.00;100367.34;5044559;28;19924;-86
2023/01/30 17:16:16;;;;;;;;;;;;;;;2.66;100.00;100374.34;5042330;28;20210;-86
2023/01/30 17:18:44;;;;;;;;;;;;;;;2.65;100.00;100385.66;5045253;28;20119;-85
2023/01/30 17:21:12;;;;;;;;;;;;;;;2.63;100.00;100385.72;5045312;28;19925;-87
2023/01/30 17:23:37;;;;;;;;;;;;;;;2.60;100.00;100393.56;5034967;28;20004;-87
2023/01/30 17:26:02;;;;;;;;;;;;;;;2.61;100.00;100400.50;5049057;28;20016;-86
2023/01/30 17:28:41;;;;;;;;;;;;;;;2.62;100.00;100398.78;5054876;28;19949;-92
2023/01/30 17:31:13;;;;;;;;;;;;;;;2.57;100.00;100401.41;5037001;28;19923;-86
2023/01/30 17:33:38;;;;;;;;;;;;;;;2.57;100.00;100398.78;5042217;28;20350;-86
2023/01/30 17:36:05;;;;;;;;;;;;;;;2.56;100.00;100402.25;5033094;28;19917;-86
2023/01/30 17:38:30;;;;;;;;;;;;;;;2.52;100.00;100405.75;5054546;28;20264;-86
2023/01/30 17:41:00;;;;;;;;;;;;;;;2.51;100.00;100402.25;5050408;28;20019;-87
2023/01/30 17:43:26;;;;;;;;;;;;;;;2.51;100.00;100402.25;5053325;28;19966;-87
2023/01/30 17:45:51;;;;;;;;;;;;;;;2.50;100.00;100408.34;5045030;28;19925;-87
2023/01/30 17:48:16;;;;;;;;;;;;;;;2.51;100.00;100409.25;5048270;28;19917;-88
2023/01/30 17:50:42;;;;;;;;;;;;;;;2.49;100.00;100424.06;5036412;28;19917;-87
2023/01/30 17:53:07;;;;;;;;;;;;;;;2.46;100.00;100413.63;5054406;28;19917;-87
2023/01/30 17:55:33;;;;;;;;;;;;;;;2.47;100.00;100420.56;5052925;28;19927;-86
2023/01/30 17:57:58;;;;;;;;;;;;;;;2.45;100.00;100419.72;5053919;28;19920;-88
2023/01/30 18:00:24;;;;;;;;;;;;;;;2.47;100.00;100417.94;5049338;28;19929;-86
2023/01/30 18:02:49;;;;;;;;;;;;;;;2.46;100.00;100426.69;5025463;28;19918;-87
2023/01/30 18:05:15;;;;;;;;;;;;;;;2.45;100.00;100427.56;5031605;28;19927;-85
2023/01/30 18:07:41;;;;;;;;;;;;;;;2.46;100.00;100431.94;5020876;28;20397;-86
2023/01/30 18:10:10;;;;;;;;;;;;;;;2.45;100.00;100438.03;5046523;28;19968;-87
2023/01/30 18:12:45;;;;;;;;;;;;;;;;;;;;;
2023/01/30 18:17:57;;;;;;;;;;;;;;;2.43;100.00;100439.78;5034539;28;19921;-85
2023/01/30 18:20:22;;;;;;;;;;;;;;;2.42;100.00;100440.63;5016022;28;19931;-85
2023/01/30 18:22:47;;;;;;;;;;;;;;;2.44;100.00;100449.34;5033827;28;20351;-86
2023/01/30 18:25:15;;;;;;;;;;;;;;;2.39;100.00;100449.34;5032482;28;19917;-86
2023/01/30 18:27:42;;;;;;;;;;;;;;;2.64;100.00;100458.06;5033786;28;19971;-86
2023/01/30 18:30:08;;;;;;;;;;;;;;;2.93;100.00;100461.56;5033677;28;19928;-86
2023/01/30 18:32:37;;;;;;;;;;;;;;;3.30;100.00;100467.59;5033616;28;19928;-86
2023/01/30 18:35:05;;;;;;;;;;;;;;;3.73;100.00;100467.47;5033538;28;19918;-86
2023/01/30 18:40:01;;;;;;;;;;;;;;;4.16;100.00;100476.88;5031091;28;19925;-84
2023/01/30 18:42:27;;;;;;;;;;;;;;;4.30;100.00;100477.69;5015841;28;20257;-85
2023/01/30 18:44:54;;;;;;;;;;;;;;;4.40;100.00;100481.13;5015632;28;19921;-88
2023/01/30 18:50:43;;;;;;;;;;;;;;;;;;;;;
2023/01/30 18:55:56;;;;;;;;;;;;;;;4.74;100.00;100488.78;5031935;28;19921;-84
2023/01/30 18:58:40;;;;;;;;;;;;;;;4.80;100.00;100483.44;5001997;28;19921;-88
2023/01/30 19:01:19;;;;;;;;;;;;;;;4.87;100.00;100484.28;5016973;28;19922;-87
2023/01/30 19:03:44;;;;;;;;;;;;;;;4.90;100.00;100490.38;5010228;28;19925;-87
2023/01/30 19:06:19;;;;;;;;;;;;;;;4.96;100.00;100488.56;5025099;28;19940;-93
2023/01/30 19:09:05;;;;;;;;;;;;;;;5.00;100.00;100500.81;5005606;28;19921;-89
2023/01/30 19:14:33;;;;;;;;;;;;;;;;;;;;;
2023/01/30 19:17:06;;;;;;;;;;;;;;;5.12;100.00;100507.69;5033371;28;19917;-91
2023/01/30 19:19:31;;;;;;;;;;;;;;;5.42;100.00;100506.53;5027271;28;19921;-84
2023/01/30 19:21:57;;;;;;;;;;;;;;;5.28;100.00;100515.44;5021437;28;20016;-86
2023/01/30 19:24:22;;;;;;;;;;;;;;;5.25;100.00;100519.88;5029425;28;20377;-85
2023/01/30 19:26:48;;;;;;;;;;;;;;;5.26;100.00;100519.84;5012263;28;19921;-85
2023/01/30 19:29:13;;;;;;;;;;;;;;;5.30;100.00;100532.94;5011295;28;20392;-85
2023/01/30 19:31:39;;;;;;;;;;;;;;;5.30;100.00;100525.94;5022724;28;19944;-85
2023/01/30 19:34:05;;;;;;;;;;;;;;;5.33;100.00;100525.91;4992752;28;20462;-85
2023/01/30 19:36:31;;;;;;;;;;;;;;;5.36;100.00;100535.50;5015887;28;19929;-85
2023/01/30 19:38:57;;;;;;;;;;;;;;;5.38;100.00;100533.75;5011907;28;20032;-85
2023/01/30 19:41:23;;;;;;;;;;;;;;;5.39;100.00;100540.72;5026076;28;19922;-86
2023/01/30 19:43:49;;;;;;;;;;;;;;;5.41;100.00;100538.97;4995526;28;19965;-86
2023/01/30 19:46:17;;;;;;;;;;;;;;;5.43;100.00;100539.84;4995318;28;19953;-86
2023/01/30 19:48:43;;;;;;;;;;;;;;;5.44;100.00;100541.56;4995491;28;20004;-86
2023/01/30 19:51:12;;;;;;;;;;;;;;;5.47;100.00;100546.78;4995363;28;19917;-85
2023/01/30 19:53:37;;;;;;;;;;;;;;;5.49;100.00;100552.03;4995493;28;20373;-86
2023/01/30 19:56:02;;;;;;;;;;;;;;;5.51;100.00;100551.13;5010783;28;19918;-90
2023/01/30 19:58:28;;;;;;;;;;;;;;;5.54;100.00;100556.38;4996966;28;19929;-90
2023/01/30 20:00:53;;;;;;;;;;;;;;;5.54;100.00;100564.25;5012995;28;20008;-89
2023/01/30 20:03:18;;;;;;;;;;;;;;;5.56;100.00;100554.59;4995309;28;19928;-89
2023/01/30 20:05:44;;;;;;;;;;;;;;;5.57;100.00;100547.59;5014294;28;19960;-86
2023/01/30 20:08:09;;;;;;;;;;;;;;;5.61;100.00;100544.03;5016466;28;19929;-86
2023/01/30 20:10:35;;;;;;;;;;;;;;;5.62;100.00;100544.00;5015391;28;19918;-86
2023/01/30 20:13:01;;;;;;;;;;;;;;;5.62;100.00;100549.28;5016395;28;19917;-86
2023/01/30 20:15:26;;;;;;;;;;;;;;;5.64;100.00;100546.63;5019057;28;19917;-86
2023/01/30 20:17:51;;;;;;;;;;;;;;;5.66;100.00;100550.09;5029581;28;19964;-88
2023/01/30 20:20:19;;;;;;;;;;;;;;;5.69;100.00;100554.47;5028136;28;19920;-93
2023/01/30 20:22:44;;;;;;;;;;;;;;;5.69;100.00;100557.97;5000933;28;19918;-87
2023/01/30 20:25:09;;;;;;;;;;;;;;;5.70;100.00;100562.34;5026867;28;20288;-87
2023/01/30 20:27:35;;;;;;;;;;;;;;;5.72;100.00;100564.97;5024788;28;19920;-87
2023/01/30 20:30:00;;;;;;;;;;;;;;;5.74;100.00;100568.44;5015896;28;20388;-86
2023/01/30 20:32:26;;;;;;;;;;;;;;;5.75;100.00;100573.69;5025860;28;20027;-86
2023/01/30 20:34:51;;;;;;;;;;;;;;;5.76;100.00;100566.66;5016065;28;19924;-87
2023/01/30 20:37:16;;;;;;;;;;;;;;;5.79;100.00;100577.13;5015945;28;19917;-85
2023/01/30 20:39:41;;;;;;;;;;;;;;;5.80;100.00;100577.13;5014716;28;19925;-85
2023/01/30 20:42:07;;;;;;;;;;;;;;;5.81;100.00;100581.50;5015841;28;20305;-85
2023/01/30 20:44:34;;;;;;;;;;;;;;;5.83;100.00;100592.00;5014449;28;19925;-86
2023/01/30 20:46:59;;;;;;;;;;;;;;;5.85;100.00;100598.13;5015861;28;19918;-86
2023/01/30 20:49:25;;;;;;;;;;;;;;;5.85;100.00;100592.84;5015540;28;19917;-86
2023/01/30 20:51:51;;;;;;;;;;;;;;;5.86;100.00;100589.34;5015725;28;19918;-85
2023/01/30 20:54:17;;;;;;;;;;;;;;;5.88;100.00;100587.56;5014475;28;19953;-85
2023/01/30 20:56:44;;;;;;;;;;;;;;;5.88;100.00;100598.09;5015676;28;19924;-84
2023/01/30 20:59:11;;;;;;;;;;;;;;;5.90;100.00;100596.31;5019734;28;19947;-83
2023/01/30 21:01:37;;;;;;;;;;;;;;;5.93;100.00;100598.03;5034217;28;19932;-84
2023/01/30 21:04:06;;;;;;;;;;;;;;;5.94;100.00;100600.66;5017591;28;19917;-84
2023/01/30 21:06:32;;;;;;;;;;;;;;;5.93;100.00;100601.53;5011025;28;19921;-84
2023/01/30 21:08:57;;;;;;;;;;;;;;;5.95;100.00;100607.66;5030256;28;19923;-84
2023/01/30 21:11:23;;;;;;;;;;;;;;;5.96;100.00;100609.41;5023310;28;20388;-84
2023/01/30 21:13:48;;;;;;;;;;;;;;;5.96;100.00;100606.78;5005172;28;19968;-84
2023/01/30 21:16:14;;;;;;;;;;;;;;;5.98;100.00;100610.31;4998591;28;19932;-84
2023/01/30 21:18:40;;;;;;;;;;;;;;;5.99;100.00;100632.22;5015275;28;19921;-84
2023/01/30 21:21:06;;;;;;;;;;;;;;;6.00;100.00;100629.56;5015200;28;19918;-84
2023/01/30 21:23:32;;;;;;;;;;;;;;;6.02;100.00;100641.84;5014997;28;19949;-84
2023/01/30 21:26:04;;;;;;;;;;;;;;;6.05;100.00;100631.25;5013843;28;19921;-84
2023/01/30 21:28:30;;;;;;;;;;;;;;;6.03;100.00;100639.19;4997345;28;19921;-84
2023/01/30 21:31:01;;;;;;;;;;;;;;;6.04;100.00;100635.66;5014812;28;20368;-84
2023/01/30 21:33:27;;;;;;;;;;;;;;;6.07;100.00;100650.56;4997168;28;19925;-84
2023/01/30 21:35:56;;;;;;;;;;;;;;;6.06;100.00;100654.91;4997347;28;20328;-87
2023/01/30 21:43:51;;;;;;;;;;;;;;;6.09;100.00;100659.28;5030878;28;20418;-84
2023/01/30 21:46:16;;;;;;;;;;;;;;;6.10;100.00;100661.03;5025297;28;19922;-84
2023/01/30 21:48:42;;;;;;;;;;;;;;;6.12;100.00;100664.53;5009674;28;19918;-84
2023/01/30 21:51:08;;;;;;;;;;;;;;;6.11;100.00;100666.28;5013308;28;19924;-84
2023/01/30 21:53:33;;;;;;;;;;;;;;;6.14;100.00;100668.91;5014537;28;20518;-85
2023/01/30 21:55:58;;;;;;;;;;;;;;;6.14;100.00;100670.63;4979715;28;19925;-84
2023/01/30 21:58:23;;;;;;;;;;;;;;;6.14;100.00;100670.63;5013278;28;19921;-84
2023/01/30 22:00:49;;;;;;;;;;;;;;;6.17;100.00;100673.22;4988942;28;19918;-83
2023/01/30 22:03:14;;;;;;;;;;;;;;;6.16;100.00;100664.47;5017479;28;19917;-84
2023/01/30 22:05:42;;;;;;;;;;;;;;;6.16;100.00;100671.50;5016195;28;19948;-84
2023/01/30 22:08:07;;;;;;;;;;;;;;;6.17;100.00;100683.75;5016366;28;19921;-85
2023/01/30 22:10:32;;;;;;;;;;;;;;;5.69;100.00;100680.69;5032618;28;19964;-83
2023/01/30 22:12:57;;;;;;;;;;;;;;;4.65;100.00;100678.72;5033439;28;19924;-84
2023/01/30 22:15:23;;;;;;;;;;;;;;;4.25;100.00;100683.25;5033202;28;19944;-84